Time;durP1;ratioP1;P1;durP2;ratioP2;P2;SDS_P1;SDS_P2;PMS_P1;PMS_P2;Temp;Humidity;BMP_temperature;BMP_pressure;BME280_temperature;BME280_humidity;BME280_pressure;Samples;Min_cycle;Max_cycle;Signal;HPM_P1;HPM_P2
2022/04/04 00:01:13;;;;;;;6.13;1.48;;;;;;;;;;5033473;28;20048;-62
2022/04/04 00:03:39;;;;;;;3.72;1.70;;;;;;;;;;5042141;28;20049;-57
2022/04/04 00:06:06;;;;;;;2.95;1.70;;;;;;;;;;5017008;28;20049;-59
2022/04/04 00:08:34;;;;;;;3.88;1.40;;;;;;;;;;5016208;28;20483;-61
2022/04/04 00:11:02;;;;;;;3.90;1.50;;;;;;;;;;5024611;28;20066;-60
2022/04/04 00:13:28;;;;;;;3.50;1.60;;;;;;;;;;5025682;28;20065;-60
2022/04/04 00:15:55;;;;;;;6.30;1.48;;;;;;;;;;5019368;28;20350;-59
2022/04/04 00:18:22;;;;;;;2.67;1.33;;;;;;;;;;5026841;28;20091;-56
2022/04/04 00:20:50;;;;;;;2.80;1.42;;;;;;;;;;5020079;28;20057;-52
2022/04/04 00:23:16;;;;;;;4.13;1.73;;;;;;;;;;5026606;28;20084;-58
2022/04/04 00:25:44;;;;;;;2.70;1.38;;;;;;;;;;5025539;28;20057;-50
2022/04/04 00:28:13;;;;;;;3.10;1.35;;;;;;;;;;5041438;28;20053;-55
2022/04/04 00:30:39;;;;;;;;;;;;;;;;;;5031348;28;20053;-53
2022/04/04 00:33:06;;;;;;;3.63;1.48;;;;;;;;;;5022972;28;19925;-56
2022/04/04 00:35:33;;;;;;;4.05;1.80;;;;;;;;;;5030216;28;20057;-55
2022/04/04 00:38:01;;;;;;;3.15;1.38;;;;;;;;;;5009805;28;20060;-57
2022/04/04 00:40:28;;;;;;;3.72;1.33;;;;;;;;;;5010006;28;20064;-55
2022/04/04 00:42:55;;;;;;;6.05;1.77;;;;;;;;;;5017775;28;20053;-56
2022/04/04 00:45:23;;;;;;;6.38;2.03;;;;;;;;;;5036611;28;20069;-58
2022/04/04 00:47:51;;;;;;;5.35;1.90;;;;;;;;;;5034015;28;20061;-53
2022/04/04 00:50:18;;;;;;;5.07;1.98;;;;;;;;;;5029954;28;20056;-51
2022/04/04 00:52:45;;;;;;;4.35;2.20;;;;;;;;;;5024367;28;20128;-57
2022/04/04 00:55:12;;;;;;;7.10;2.47;;;;;;;;;;5038574;28;20064;-58
2022/04/04 00:57:40;;;;;;;5.03;2.20;;;;;;;;;;5044572;28;20140;-57
2022/04/04 01:00:09;;;;;;;5.15;2.05;;;;;;;;;;5051532;28;20049;-60
2022/04/04 01:02:37;;;;;;;7.57;2.25;;;;;;;;;;5041960;28;20084;-62
2022/04/04 01:05:04;;;;;;;4.95;1.88;;;;;;;;;;5030038;28;20179;-58
2022/04/04 01:07:36;;;;;;;4.25;1.50;;;;;;;;;;5024873;28;20160;-61
2022/04/04 01:10:03;;;;;;;5.25;2.08;;;;;;;;;;5049238;28;20087;-57
2022/04/04 01:12:30;;;;;;;4.80;2.03;;;;;;;;;;5048893;28;20076;-57
2022/04/04 01:14:56;;;;;;;3.60;1.67;;;;;;;;;;5035284;28;20056;-57
2022/04/04 01:17:25;;;;;;;7.35;2.33;;;;;;;;;;5049272;28;20140;-57
2022/04/04 01:19:55;;;;;;;8.07;2.33;;;;;;;;;;5025074;28;20068;-61
2022/04/04 01:22:22;;;;;;;5.00;1.70;;;;;;;;;;5028243;28;20140;-57
2022/04/04 01:24:51;;;;;;;5.07;2.10;;;;;;;;;;5037516;28;20087;-61
2022/04/04 01:27:18;;;;;;;3.47;1.75;;;;;;;;;;5048276;28;20052;-60
2022/04/04 01:29:44;;;;;;;6.85;2.40;;;;;;;;;;5028795;28;20057;-57
2022/04/04 01:32:11;;;;;;;6.25;2.08;;;;;;;;;;5028361;28;20060;-54
2022/04/04 01:34:38;;;;;;;3.95;1.70;;;;;;;;;;5022824;28;20187;-56
2022/04/04 01:37:06;;;;;;;4.03;1.70;;;;;;;;;;5028284;28;20041;-54
2022/04/04 01:39:32;;;;;;;7.20;2.40;;;;;;;;;;5029648;28;20137;-59
2022/04/04 01:42:01;;;;;;;3.80;1.73;;;;;;;;;;5048439;28;20084;-57
2022/04/04 01:44:27;;;;;;;6.53;2.28;;;;;;;;;;5035550;28;20059;-51
2022/04/04 01:46:54;;;;;;;7.57;2.45;;;;;;;;;;5048520;28;20049;-59
2022/04/04 01:49:21;;;;;;;7.25;2.28;;;;;;;;;;5039175;28;20052;-54
2022/04/04 01:51:48;;;;;;;3.70;1.67;;;;;;;;;;5027905;28;20053;-50
2022/04/04 01:54:14;;;;;;;5.65;2.30;;;;;;;;;;5024425;28;20051;-55
2022/04/04 01:56:43;;;;;;;4.57;2.13;;;;;;;;;;5047719;28;20049;-58
2022/04/04 01:59:11;;;;;;;;;;;;;;;;;;5047498;28;20044;-54
2022/04/04 02:01:40;;;;;;;7.68;2.00;;;;;;;;;;5023605;28;19925;-54
2022/04/04 02:04:09;;;;;;;5.22;2.40;;;;;;;;;;5027790;28;20053;-50
2022/04/04 02:06:35;;;;;;;7.15;2.55;;;;;;;;;;5033721;28;20041;-60
2022/04/04 02:09:02;;;;;;;4.10;1.92;;;;;;;;;;5028727;28;20056;-56
2022/04/04 02:11:29;;;;;;;4.05;2.00;;;;;;;;;;5036490;28;20052;-56
2022/04/04 02:13:57;;;;;;;6.15;2.33;;;;;;;;;;5043990;28;20060;-56
2022/04/04 02:16:24;;;;;;;5.50;2.15;;;;;;;;;;4991494;28;20058;-57
2022/04/04 02:18:58;;;;;;;6.70;2.38;;;;;;;;;;4990278;28;20077;-53
2022/04/04 02:21:26;;;;;;;4.80;2.15;;;;;;;;;;4997431;28;20073;-56
2022/04/04 02:23:52;;;;;;;4.72;2.15;;;;;;;;;;5048990;28;20052;-52
2022/04/04 02:26:19;;;;;;;4.18;1.88;;;;;;;;;;5036507;28;20053;-62
2022/04/04 02:28:47;;;;;;;3.97;2.05;;;;;;;;;;5030324;28;20237;-62
2022/04/04 02:31:14;;;;;;;3.55;1.85;;;;;;;;;;5021325;28;20057;-58
2022/04/04 02:33:40;;;;;;;6.25;2.33;;;;;;;;;;5019224;28;20077;-53
2022/04/04 02:36:09;;;;;;;4.93;2.35;;;;;;;;;;5021906;28;20100;-59
2022/04/04 02:38:37;;;;;;;;;;;;;;;;;;5028741;28;20057;-53
2022/04/04 02:41:04;;;;;;;4.57;2.00;;;;;;;;;;5023088;28;19920;-57
2022/04/04 02:43:30;;;;;;;4.75;1.75;;;;;;;;;;5045286;28;20061;-64
2022/04/04 02:45:57;;;;;;;2.83;1.52;;;;;;;;;;5047220;28;20053;-63
2022/04/04 02:48:24;;;;;;;6.63;2.17;;;;;;;;;;5040364;28;20061;-57
2022/04/04 02:50:52;;;;;;;4.43;1.90;;;;;;;;;;5046938;28;20048;-59
2022/04/04 02:53:20;;;;;;;8.53;2.57;;;;;;;;;;5039081;28;20136;-60
2022/04/04 02:58:31;;;;;;;5.63;2.13;;;;;;;;;;5026079;28;20119;-52
2022/04/04 03:00:58;;;;;;;5.70;2.15;;;;;;;;;;5027462;28;20056;-51
2022/04/04 03:03:25;;;;;;;5.55;2.50;;;;;;;;;;5020742;28;20057;-51
2022/04/04 03:05:52;;;;;;;6.75;2.50;;;;;;;;;;5001975;28;20051;-59
2022/04/04 03:08:20;;;;;;;4.90;2.55;;;;;;;;;;5000433;28;20073;-53
2022/04/04 03:10:47;;;;;;;7.22;2.30;;;;;;;;;;5007160;28;20050;-58
2022/04/04 03:13:13;;;;;;;5.50;2.03;;;;;;;;;;4999304;28;20061;-61
2022/04/04 03:15:40;;;;;;;4.10;1.88;;;;;;;;;;5003971;28;20079;-55
2022/04/04 03:18:07;;;;;;;4.78;2.10;;;;;;;;;;5015665;28;20054;-55
2022/04/04 03:20:35;;;;;;;3.42;1.67;;;;;;;;;;5007347;28;20541;-52
2022/04/04 03:23:02;;;;;;;6.32;2.47;;;;;;;;;;5000361;28;20060;-52
2022/04/04 03:25:30;;;;;;;5.97;2.50;;;;;;;;;;5006462;28;20081;-54
2022/04/04 03:27:59;;;;;;;5.13;2.08;;;;;;;;;;5001428;28;20058;-48
2022/04/04 03:30:26;;;;;;;8.18;2.45;;;;;;;;;;5006174;28;20061;-61
2022/04/04 03:32:54;;;;;;;8.57;2.58;;;;;;;;;;5005789;28;20054;-53
2022/04/04 03:35:21;;;;;;;4.60;1.80;;;;;;;;;;5000051;28;20066;-52
2022/04/04 03:37:51;;;;;;;8.35;2.65;;;;;;;;;;5006037;28;20057;-58
2022/04/04 03:40:19;;;;;;;9.00;2.30;;;;;;;;;;4998657;28;20144;-57
2022/04/04 03:42:49;;;;;;;8.38;2.55;;;;;;;;;;5004867;28;20056;-57
2022/04/04 03:45:16;;;;;;;4.75;1.90;;;;;;;;;;4999901;28;20148;-59
2022/04/04 03:47:43;;;;;;;7.97;2.47;;;;;;;;;;5008177;28;20058;-53
2022/04/04 03:50:11;;;;;;;6.60;2.72;;;;;;;;;;5003589;28;20120;-58
2022/04/04 03:52:37;;;;;;;6.05;2.63;;;;;;;;;;5009623;28;20115;-55
2022/04/04 03:55:06;;;;;;;7.03;2.72;;;;;;;;;;5020049;28;20041;-62
2022/04/04 03:57:33;;;;;;;5.70;2.63;;;;;;;;;;5023780;28;20053;-54
2022/04/04 04:00:01;;;;;;;7.03;2.67;;;;;;;;;;5000230;28;20046;-53
2022/04/04 04:02:27;;;;;;;5.15;2.50;;;;;;;;;;5006727;28;20054;-58
2022/04/04 04:04:54;;;;;;;6.55;2.05;;;;;;;;;;5003880;28;20333;-54
2022/04/04 04:07:24;;;;;;;6.15;2.30;;;;;;;;;;5042545;28;20057;-59
2022/04/04 04:09:51;;;;;;;4.28;2.20;;;;;;;;;;5023392;28;20049;-56
2022/04/04 04:12:18;;;;;;;5.43;2.63;;;;;;;;;;5010417;28;20073;-63
2022/04/04 04:14:45;;;;;;;6.97;3.20;;;;;;;;;;5004194;28;20057;-61
2022/04/04 04:17:13;;;;;;;7.55;2.38;;;;;;;;;;5065140;28;20048;-55
2022/04/04 04:22:24;;;;;;;8.00;2.80;;;;;;;;;;5052524;28;20057;-58
2022/04/04 04:24:51;;;;;;;16.20;3.33;;;;;;;;;;5048076;28;20138;-58
2022/04/04 04:27:18;;;;;;;6.13;2.50;;;;;;;;;;5043261;28;20049;-52
2022/04/04 04:29:45;;;;;;;10.07;2.95;;;;;;;;;;5050103;28;20095;-59
2022/04/04 04:32:13;;;;;;;5.07;2.45;;;;;;;;;;5043118;28;20057;-56
2022/04/04 04:34:40;;;;;;;7.32;2.60;;;;;;;;;;5048810;28;20052;-61
2022/04/04 04:37:07;;;;;;;7.05;2.63;;;;;;;;;;5043016;28;20057;-56
2022/04/04 04:39:34;;;;;;;6.53;2.22;;;;;;;;;;5049892;28;20064;-56
2022/04/04 04:42:01;;;;;;;6.10;2.35;;;;;;;;;;5042756;28;20094;-57
2022/04/04 04:44:28;;;;;;;6.10;2.25;;;;;;;;;;5049111;28;20105;-56
2022/04/04 04:46:54;;;;;;;8.02;2.95;;;;;;;;;;5035473;28;20058;-56
2022/04/04 04:49:25;;;;;;;9.55;3.42;;;;;;;;;;5030691;28;20108;-50
2022/04/04 04:51:52;;;;;;;8.20;3.25;;;;;;;;;;5029741;28;20052;-53
2022/04/04 04:54:19;;;;;;;13.57;4.07;;;;;;;;;;5048691;28;20107;-59
2022/04/04 04:56:46;;;;;;;8.07;2.25;;;;;;;;;;5039515;28;20057;-60
2022/04/04 04:59:13;;;;;;;5.70;2.55;;;;;;;;;;5026742;28;20126;-58
2022/04/04 05:01:40;;;;;;;6.82;2.92;;;;;;;;;;5024016;28;20068;-61
2022/04/04 05:04:07;;;;;;;10.50;4.07;;;;;;;;;;5028468;28;20049;-55
2022/04/04 05:06:35;;;;;;;11.70;3.17;;;;;;;;;;5043812;28;20049;-56
2022/04/04 05:09:02;;;;;;;7.97;2.58;;;;;;;;;;5022662;28;20057;-57
2022/04/04 05:11:29;;;;;;;6.80;2.90;;;;;;;;;;5028527;28;20046;-55
2022/04/04 05:13:56;;;;;;;10.77;4.78;;;;;;;;;;5020587;28;20041;-55
2022/04/04 05:16:28;;;;;;;9.77;4.38;;;;;;;;;;5029321;28;20062;-60
2022/04/04 05:18:55;;;;;;;8.15;3.40;;;;;;;;;;5023907;28;20050;-55
2022/04/04 05:21:22;;;;;;;9.10;2.78;;;;;;;;;;5036213;28;20077;-51
2022/04/04 05:23:50;;;;;;;7.70;2.42;;;;;;;;;;5020795;28;20056;-59
2022/04/04 05:26:17;;;;;;;8.55;3.10;;;;;;;;;;5027918;28;20053;-56
2022/04/04 05:28:43;;;;;;;8.20;3.17;;;;;;;;;;5021126;28;20049;-61
2022/04/04 05:31:10;;;;;;;9.45;2.58;;;;;;;;;;5027784;28;20092;-56
2022/04/04 05:33:37;;;;;;;11.60;3.67;;;;;;;;;;5021549;28;20060;-56
2022/04/04 05:36:04;;;;;;;10.48;3.10;;;;;;;;;;5027885;28;20056;-61
2022/04/04 05:38:31;;;;;;;10.33;4.00;;;;;;;;;;5020827;28;20050;-58
2022/04/04 05:41:00;;;;;;;9.85;3.35;;;;;;;;;;5027860;28;20304;-62
2022/04/04 05:43:29;;;;;;;8.77;2.83;;;;;;;;;;5019912;28;20050;-52
2022/04/04 05:45:55;;;;;;;6.00;2.35;;;;;;;;;;5009097;28;20129;-50
2022/04/04 05:48:23;;;;;;;6.43;2.45;;;;;;;;;;5005134;28;20050;-56
2022/04/04 05:50:50;;;;;;;6.05;2.83;;;;;;;;;;5028676;28;20045;-62
2022/04/04 05:53:17;;;;;;;6.00;2.58;;;;;;;;;;5028875;28;20060;-57
2022/04/04 05:55:43;;;;;;;10.20;2.92;;;;;;;;;;5022045;28;20053;-49
2022/04/04 05:58:12;;;;;;;8.23;2.97;;;;;;;;;;5026962;28;20107;-57
2022/04/04 06:00:38;;;;;;;5.85;1.92;;;;;;;;;;5022830;28;20064;-51
2022/04/04 06:03:06;;;;;;;6.93;2.80;;;;;;;;;;5028614;28;20087;-54
2022/04/04 06:05:34;;;;;;;9.88;3.00;;;;;;;;;;5016963;28;20139;-52
2022/04/04 06:08:01;;;;;;;;;;;;;;;;;;5042258;28;20058;-51
2022/04/04 06:10:28;;;;;;;7.10;2.40;;;;;;;;;;5022320;28;19925;-51
2022/04/04 06:12:54;;;;;;;7.43;3.15;;;;;;;;;;5028274;28;20076;-56
2022/04/04 06:15:22;;;;;;;8.07;2.90;;;;;;;;;;5014946;28;20154;-55
2022/04/04 06:17:49;;;;;;;7.95;2.95;;;;;;;;;;5008714;28;20050;-54
2022/04/04 06:20:16;;;;;;;6.40;2.60;;;;;;;;;;5008770;28;20041;-52
2022/04/04 06:22:43;;;;;;;8.48;3.60;;;;;;;;;;5028115;28;20045;-58
2022/04/04 06:25:12;;;;;;;11.48;3.88;;;;;;;;;;5022152;28;20060;-57
2022/04/04 06:27:41;;;;;;;6.65;3.22;;;;;;;;;;5028577;28;20057;-58
2022/04/04 06:30:09;;;;;;;7.53;3.60;;;;;;;;;;5020738;28;20060;-55
2022/04/04 06:32:40;;;;;;;7.35;3.20;;;;;;;;;;5028377;28;20088;-58
2022/04/04 06:35:07;;;;;;;11.98;4.05;;;;;;;;;;5025056;28;20108;-52
2022/04/04 06:37:34;;;;;;;8.07;3.53;;;;;;;;;;5009630;28;20052;-51
2022/04/04 06:40:00;;;;;;;6.03;2.63;;;;;;;;;;5028686;28;20045;-56
2022/04/04 06:42:27;;;;;;;11.95;3.33;;;;;;;;;;5022613;28;20430;-54
2022/04/04 06:44:55;;;;;;;8.27;2.65;;;;;;;;;;5029808;28;20049;-51
2022/04/04 06:47:22;;;;;;;9.23;3.67;;;;;;;;;;5038162;28;21739;-58
2022/04/04 06:49:52;;;;;;;7.35;2.80;;;;;;;;;;5047193;28;20382;-52
2022/04/04 06:52:19;;;;;;;4.03;1.63;;;;;;;;;;5027672;28;20142;-56
2022/04/04 06:54:48;;;;;;;7.28;3.00;;;;;;;;;;5026431;28;20053;-54
2022/04/04 06:57:15;;;;;;;5.60;2.72;;;;;;;;;;5021711;28;20061;-57
2022/04/04 06:59:42;;;;;;;9.43;3.20;;;;;;;;;;5027132;28;20057;-59
2022/04/04 07:02:08;;;;;;;10.27;3.10;;;;;;;;;;5028466;28;20103;-59
2022/04/04 07:04:37;;;;;;;8.68;3.10;;;;;;;;;;5047156;28;20057;-55
2022/04/04 07:07:05;;;;;;;5.82;2.22;;;;;;;;;;5031439;28;20073;-60
2022/04/04 07:09:32;;;;;;;12.68;2.80;;;;;;;;;;5022431;28;20062;-63
2022/04/04 07:12:03;;;;;;;7.65;3.45;;;;;;;;;;5005753;28;20054;-57
2022/04/04 07:14:30;;;;;;;9.57;3.20;;;;;;;;;;5026543;28;20128;-54
2022/04/04 07:16:57;;;;;;;8.82;3.00;;;;;;;;;;5018555;28;20049;-60
2022/04/04 07:19:24;;;;;;;6.70;2.88;;;;;;;;;;5023291;28;20100;-52
2022/04/04 07:21:51;;;;;;;7.85;3.17;;;;;;;;;;5007005;28;20054;-53
2022/04/04 07:24:19;;;;;;;7.70;2.70;;;;;;;;;;5056047;28;20357;-56
2022/04/04 07:26:48;;;;;;;10.13;3.33;;;;;;;;;;5046262;28;20049;-56
2022/04/04 07:29:15;;;;;;;6.40;2.42;;;;;;;;;;5040364;28;20061;-55
2022/04/04 07:31:42;;;;;;;7.90;3.30;;;;;;;;;;5046309;28;20072;-56
2022/04/04 07:34:10;;;;;;;6.05;2.85;;;;;;;;;;5027012;28;20057;-54
2022/04/04 07:36:37;;;;;;;9.88;2.55;;;;;;;;;;5026810;28;20123;-57
2022/04/04 07:39:04;;;;;;;7.75;3.03;;;;;;;;;;5037539;28;20053;-52
2022/04/04 07:41:32;;;;;;;6.78;1.63;;;;;;;;;;5051392;28;20110;-54
2022/04/04 07:43:58;;;;;;;7.38;2.75;;;;;;;;;;5034213;28;20053;-61
2022/04/04 07:46:25;;;;;;;6.63;3.45;;;;;;;;;;5030872;28;20141;-57
2022/04/04 07:48:55;;;;;;;9.68;3.13;;;;;;;;;;5024450;28;20140;-56
2022/04/04 07:51:22;;;;;;;4.55;2.03;;;;;;;;;;5031133;28;20053;-61
2022/04/04 07:53:48;;;;;;;7.03;2.60;;;;;;;;;;5025562;28;20056;-60
2022/04/04 07:56:15;;;;;;;8.02;3.58;;;;;;;;;;5031122;28;20050;-59
2022/04/04 07:58:43;;;;;;;6.53;2.80;;;;;;;;;;5029092;28;20168;-51
2022/04/04 08:01:10;;;;;;;15.32;3.60;;;;;;;;;;5050427;28;20053;-57
2022/04/04 08:03:37;;;;;;;10.32;3.55;;;;;;;;;;5043795;28;20055;-54
2022/04/04 08:06:04;;;;;;;12.45;4.03;;;;;;;;;;5029458;28;20065;-60
2022/04/04 08:08:32;;;;;;;7.70;3.25;;;;;;;;;;5016365;28;20080;-59
2022/04/04 08:11:00;;;;;;;9.55;2.90;;;;;;;;;;5006457;28;20054;-59
2022/04/04 08:13:27;;;;;;;6.47;2.55;;;;;;;;;;5011953;28;20049;-59
2022/04/04 08:15:56;;;;;;;5.80;2.42;;;;;;;;;;5034890;28;20049;-58
2022/04/04 08:18:23;;;;;;;8.27;3.80;;;;;;;;;;5049762;28;20060;-55
2022/04/04 08:20:51;;;;;;;10.45;3.20;;;;;;;;;;5030568;28;20057;-57
2022/04/04 08:23:18;;;;;;;9.38;3.50;;;;;;;;;;5029295;28;20144;-62
2022/04/04 08:25:44;;;;;;;6.10;2.60;;;;;;;;;;5025000;28;20053;-61
2022/04/04 08:28:13;;;;;;;9.20;3.47;;;;;;;;;;5029772;28;20084;-62
2022/04/04 08:30:39;;;;;;;5.95;2.90;;;;;;;;;;5024505;28;20058;-52
2022/04/04 08:33:07;;;;;;;9.15;3.55;;;;;;;;;;5029128;28;20057;-57
2022/04/04 08:35:35;;;;;;;10.85;3.20;;;;;;;;;;5024401;28;20046;-56
2022/04/04 08:38:02;;;;;;;14.25;3.90;;;;;;;;;;5030535;28;20072;-57
2022/04/04 08:40:28;;;;;;;9.85;3.85;;;;;;;;;;5024700;28;20049;-58
2022/04/04 08:42:55;;;;;;;8.02;3.42;;;;;;;;;;5030119;28;20382;-58
2022/04/04 08:45:22;;;;;;;6.47;2.55;;;;;;;;;;5024696;28;20045;-56
2022/04/04 08:47:50;;;;;;;10.48;3.40;;;;;;;;;;5049592;28;20053;-56
2022/04/04 08:50:18;;;;;;;7.53;2.88;;;;;;;;;;5051094;28;20057;-56
2022/04/04 08:52:45;;;;;;;6.55;2.70;;;;;;;;;;5043591;28;20052;-56
2022/04/04 08:55:16;;;;;;;8.95;3.35;;;;;;;;;;5049226;28;20354;-61
2022/04/04 08:57:44;;;;;;;11.70;4.43;;;;;;;;;;5042881;28;20067;-63
2022/04/04 09:00:11;;;;;;;9.77;3.75;;;;;;;;;;5049274;28;20056;-54
2022/04/04 09:02:37;;;;;;;14.60;3.75;;;;;;;;;;5027787;28;20046;-52
2022/04/04 09:05:05;;;;;;;9.15;4.03;;;;;;;;;;5028887;28;20448;-56
2022/04/04 09:07:33;;;;;;;7.25;2.70;;;;;;;;;;5022790;28;20060;-64
2022/04/04 09:10:00;;;;;;;10.45;4.18;;;;;;;;;;5028211;28;20111;-59
2022/04/04 09:12:27;;;;;;;8.98;2.92;;;;;;;;;;5023170;28;20057;-58
2022/04/04 09:14:54;;;;;;;6.85;3.20;;;;;;;;;;5040644;28;20048;-58
2022/04/04 09:17:22;;;;;;;6.55;2.28;;;;;;;;;;5041852;28;20045;-56
2022/04/04 09:19:49;;;;;;;7.07;2.77;;;;;;;;;;5048819;28;20053;-59
2022/04/04 09:22:18;;;;;;;6.60;3.20;;;;;;;;;;5037082;28;20171;-55
2022/04/04 09:24:47;;;;;;;16.70;3.50;;;;;;;;;;5028161;28;20053;-57
2022/04/04 09:27:17;;;;;;;6.00;2.55;;;;;;;;;;5026128;28;20103;-51
2022/04/04 09:29:45;;;;;;;8.70;3.72;;;;;;;;;;5048247;28;20053;-53
2022/04/04 09:32:15;;;;;;;6.43;2.67;;;;;;;;;;5023408;28;20103;-57
2022/04/04 09:34:41;;;;;;;;;;;;;;;;;;5028856;28;20060;-53
2022/04/04 09:37:15;;;;;;;7.78;3.22;;;;;;;;;;5028807;28;19925;-56
2022/04/04 09:39:42;;;;;;;9.90;3.00;;;;;;;;;;5029158;28;20070;-53
2022/04/04 09:42:16;;;;;;;6.05;2.40;;;;;;;;;;5029799;28;20057;-57
2022/04/04 09:44:42;;;;;;;7.75;2.92;;;;;;;;;;5023899;28;20057;-56
2022/04/04 09:47:10;;;;;;;9.43;3.45;;;;;;;;;;5028934;28;20084;-55
2022/04/04 09:49:39;;;;;;;8.05;3.05;;;;;;;;;;5022716;28;20064;-60
2022/04/04 09:52:05;;;;;;;;;;;;;;;;;;5028819;28;20045;-55
2022/04/04 09:54:31;;;;;;;8.75;3.38;;;;;;;;;;5021865;28;19999;-54
2022/04/04 09:57:10;;;;;;;6.13;2.92;;;;;;;;;;5028157;28;20474;-55
2022/04/04 09:59:39;;;;;;;4.15;2.10;;;;;;;;;;5021886;28;20056;-54
2022/04/04 10:02:06;;;;;;;5.55;2.67;;;;;;;;;;5026723;28;20057;-54
2022/04/04 10:04:33;;;;;;;9.80;3.00;;;;;;;;;;5014196;28;20065;-56
2022/04/04 10:07:03;;;;;;;6.53;2.83;;;;;;;;;;5039286;28;20049;-57
2022/04/04 10:09:30;;;;;;;7.70;2.72;;;;;;;;;;5021664;28;20408;-56
2022/04/04 10:11:58;;;;;;;4.40;1.73;;;;;;;;;;5011726;28;20049;-55
2022/04/04 10:14:24;;;;;;;5.03;2.35;;;;;;;;;;5027624;28;20081;-60
2022/04/04 10:16:53;;;;;;;8.60;3.30;;;;;;;;;;5030819;28;20053;-57
2022/04/04 10:19:21;;;;;;;6.43;2.67;;;;;;;;;;5023364;28;20052;-56
2022/04/04 10:21:48;;;;;;;6.75;3.53;;;;;;;;;;5027189;28;20105;-61
2022/04/04 10:24:15;;;;;;;7.03;3.40;;;;;;;;;;5020933;28;20107;-59
2022/04/04 10:26:42;;;;;;;5.63;2.30;;;;;;;;;;5027999;28;20053;-58
2022/04/04 10:29:14;;;;;;;12.02;3.03;;;;;;;;;;5026452;28;20061;-53
2022/04/04 10:31:48;;;;;;;6.40;2.65;;;;;;;;;;5043110;28;20049;-61
2022/04/04 10:34:17;;;;;;;6.72;3.28;;;;;;;;;;5025849;28;20053;-62
2022/04/04 10:36:43;;;;;;;;;;;;;;;;;;5023260;28;20049;-65
2022/04/04 10:39:31;;;;;;;13.25;3.35;;;;;;;;;;5048302;28;19925;-55
2022/04/04 10:41:57;;;;;;;7.97;2.85;;;;;;;;;;5023344;28;20063;-56
2022/04/04 10:44:45;;;;;;;9.68;3.78;;;;;;;;;;5027488;28;20065;-58
2022/04/04 10:47:20;;;;;;;4.78;2.13;;;;;;;;;;5024138;28;20057;-63
2022/04/04 10:49:48;;;;;;;7.43;2.60;;;;;;;;;;5028389;28;20127;-59
2022/04/04 10:52:18;;;;;;;4.32;1.67;;;;;;;;;;5023308;28;20041;-53
2022/04/04 10:54:45;;;;;;;7.78;2.58;;;;;;;;;;5028696;28;20046;-57
2022/04/04 10:57:16;;;;;;;5.88;2.53;;;;;;;;;;5037571;28;20048;-59
2022/04/04 10:59:45;;;;;;;6.32;2.20;;;;;;;;;;5048214;28;20111;-52
2022/04/04 11:02:13;;;;;;;5.13;2.20;;;;;;;;;;5042140;28;20056;-58
2022/04/04 11:10:37;;;;;;;6.97;2.13;;;;;;;;;;4990311;28;20061;-57
2022/04/04 11:13:07;;;;;;;6.60;2.13;;;;;;;;;;4964551;28;20086;-53
2022/04/04 11:15:44;;;;;;;5.10;2.08;;;;;;;;;;5021247;28;20053;-61
2022/04/04 11:18:13;;;;;;;7.97;2.05;;;;;;;;;;5038204;28;20060;-59
2022/04/04 11:20:46;;;;;;;5.85;2.30;;;;;;;;;;5046784;28;20115;-56
2022/04/04 11:23:16;;;;;;;5.72;2.33;;;;;;;;;;5039972;28;20060;-52
2022/04/04 11:31:17;;;;;;;3.15;1.42;;;;;;;;;;5046825;28;20079;-52
2022/04/04 11:33:47;;;;;;;5.65;1.80;;;;;;;;;;5039917;28;20053;-53
2022/04/04 11:36:21;;;;;;;4.32;1.70;;;;;;;;;;5047453;28;20049;-58
2022/04/04 11:38:51;;;;;;;3.47;1.73;;;;;;;;;;5041304;28;20061;-56
2022/04/04 11:41:19;;;;;;;3.25;1.55;;;;;;;;;;5048274;28;20053;-57
2022/04/04 11:43:50;;;;;;;3.17;0.95;;;;;;;;;;5042699;28;20053;-56
2022/04/04 11:46:19;;;;;;;3.47;1.50;;;;;;;;;;5047449;28;20057;-61
2022/04/04 11:48:54;;;;;;;5.90;2.00;;;;;;;;;;5028370;28;20053;-56
2022/04/04 11:51:22;;;;;;;4.63;1.75;;;;;;;;;;5026803;28;20076;-61
2022/04/04 11:53:51;;;;;;;4.75;1.67;;;;;;;;;;5031708;28;20057;-60
2022/04/04 12:01:40;;;;;;;3.72;1.77;;;;;;;;;;5022856;28;20053;-61
2022/04/04 12:04:07;;;;;;;2.30;1.38;;;;;;;;;;4998526;28;20085;-63
2022/04/04 12:06:34;;;;;;;4.25;1.52;;;;;;;;;;4995192;28;20069;-54
2022/04/04 12:09:07;;;;;;;2.33;1.13;;;;;;;;;;5006207;28;20081;-54
2022/04/04 12:11:35;;;;;;;3.10;1.33;;;;;;;;;;5022776;28;20133;-55
2022/04/04 12:14:01;;;;;;;3.67;1.42;;;;;;;;;;5015527;28;20053;-54
2022/04/04 12:16:29;;;;;;;3.75;1.55;;;;;;;;;;5022772;28;20056;-60
2022/04/04 12:18:57;;;;;;;4.05;1.83;;;;;;;;;;5000117;28;20061;-58
2022/04/04 12:21:24;;;;;;;5.18;2.05;;;;;;;;;;5006170;28;20123;-61
2022/04/04 12:26:37;;;;;;;3.72;1.40;;;;;;;;;;5026221;28;20133;-53
2022/04/04 12:29:10;;;;;;;5.45;2.10;;;;;;;;;;5020797;28;20061;-52
2022/04/04 12:31:36;;;;;;;3.53;1.58;;;;;;;;;;5047653;28;20053;-57
2022/04/04 12:34:06;;;;;;;3.35;1.48;;;;;;;;;;5046130;28;20151;-59
2022/04/04 12:36:35;;;;;;;1.80;1.05;;;;;;;;;;5045182;28;20145;-52
2022/04/04 12:39:03;;;;;;;3.90;1.90;;;;;;;;;;5030078;28;20054;-56
2022/04/04 12:41:29;;;;;;;2.50;1.23;;;;;;;;;;5018150;28;20057;-55
2022/04/04 12:44:01;;;;;;;3.83;1.30;;;;;;;;;;5028599;28;20050;-53
2022/04/04 12:46:29;;;;;;;3.00;1.35;;;;;;;;;;5022884;28;20073;-65
2022/04/04 12:49:07;;;;;;;3.33;1.50;;;;;;;;;;5049428;28;20087;-57
2022/04/04 12:51:34;;;;;;;3.63;1.60;;;;;;;;;;5028038;28;20077;-59
2022/04/04 12:54:01;;;;;;;4.32;1.63;;;;;;;;;;5029634;28;20049;-61
2022/04/04 12:56:28;;;;;;;2.10;1.05;;;;;;;;;;5025443;28;20119;-53
2022/04/04 12:59:06;;;;;;;1.42;0.90;;;;;;;;;;5029592;28;20056;-56
2022/04/04 13:01:32;;;;;;;;;;;;;;;;;;5023602;28;20168;-58
2022/04/04 13:03:59;;;;;;;1.70;0.90;;;;;;;;;;5028892;28;19921;-60
2022/04/04 13:06:29;;;;;;;1.60;1.00;;;;;;;;;;5023414;28;20049;-50
2022/04/04 13:08:57;;;;;;;3.17;1.38;;;;;;;;;;5007968;28;20085;-51
2022/04/04 13:11:25;;;;;;;1.50;1.05;;;;;;;;;;5003665;28;20317;-58
2022/04/04 13:13:59;;;;;;;2.55;1.30;;;;;;;;;;5011495;28;20042;-56
2022/04/04 13:16:31;;;;;;;2.70;1.20;;;;;;;;;;5042396;28;20033;-57
2022/04/04 13:19:00;;;;;;;2.58;1.13;;;;;;;;;;5047924;28;20045;-57
2022/04/04 13:21:26;;;;;;;;;;;;;;;;;;5039528;28;20064;-54
2022/04/04 13:23:53;;;;;;;2.25;1.20;;;;;;;;;;5029358;28;20105;-55
2022/04/04 13:26:19;;;;;;;2.40;1.13;;;;;;;;;;5025522;28;20537;-58
2022/04/04 13:28:46;;;;;;;2.05;1.10;;;;;;;;;;5030472;28;20054;-60
2022/04/04 13:31:13;;;;;;;1.75;1.15;;;;;;;;;;5029813;28;20115;-67
2022/04/04 13:33:41;;;;;;;2.78;1.33;;;;;;;;;;5023102;28;20049;-65
2022/04/04 13:36:08;;;;;;;2.33;1.10;;;;;;;;;;5027836;28;20055;-62
2022/04/04 13:38:34;;;;;;;1.73;0.93;;;;;;;;;;5038899;28;20049;-60
2022/04/04 13:41:01;;;;;;;1.15;0.95;;;;;;;;;;5027816;28;20065;-63
2022/04/04 13:43:29;;;;;;;3.13;1.30;;;;;;;;;;5022195;28;20129;-60
2022/04/04 13:45:55;;;;;;;2.45;0.95;;;;;;;;;;5027413;28;20085;-61
2022/04/04 13:48:22;;;;;;;2.80;1.00;;;;;;;;;;5022036;28;20057;-64
2022/04/04 13:50:50;;;;;;;1.60;0.95;;;;;;;;;;5028526;28;20049;-61
2022/04/04 13:53:17;;;;;;;2.08;0.93;;;;;;;;;;5021739;28;20115;-60
2022/04/04 13:55:43;;;;;;;1.55;0.80;;;;;;;;;;5027754;28;20057;-60
2022/04/04 13:58:10;;;;;;;1.88;0.88;;;;;;;;;;5021313;28;20175;-56
2022/04/04 14:00:38;;;;;;;1.48;0.98;;;;;;;;;;5027851;28;20099;-60
2022/04/04 14:03:04;;;;;;;2.15;0.90;;;;;;;;;;5021842;28;20041;-60
2022/04/04 14:05:31;;;;;;;2.25;1.08;;;;;;;;;;5044278;28;20053;-60
2022/04/04 14:07:59;;;;;;;1.95;0.90;;;;;;;;;;5021988;28;20053;-66
2022/04/04 14:10:28;;;;;;;2.40;0.85;;;;;;;;;;5028042;28;20172;-60
2022/04/04 14:12:55;;;;;;;1.35;0.90;;;;;;;;;;5024497;28;20057;-63
2022/04/04 14:15:21;;;;;;;1.67;0.90;;;;;;;;;;5026009;28;20053;-56
2022/04/04 14:17:50;;;;;;;1.98;0.75;;;;;;;;;;5027965;28;20059;-60
2022/04/04 14:20:17;;;;;;;1.33;0.82;;;;;;;;;;5039591;28;20073;-54
2022/04/04 14:22:44;;;;;;;1.48;1.00;;;;;;;;;;5028214;28;20049;-59
2022/04/04 14:25:12;;;;;;;0.73;0.68;;;;;;;;;;5022152;28;20062;-57
2022/04/04 14:27:39;;;;;;;2.35;0.80;;;;;;;;;;5027683;28;20049;-56
2022/04/04 14:30:07;;;;;;;2.72;0.90;;;;;;;;;;5022274;28;20052;-54
2022/04/04 14:32:34;;;;;;;1.50;0.80;;;;;;;;;;5027439;28;20053;-60
2022/04/04 14:35:00;;;;;;;2.15;1.02;;;;;;;;;;5021695;28;20076;-55
2022/04/04 14:37:27;;;;;;;1.27;0.80;;;;;;;;;;5019767;28;20144;-53
2022/04/04 14:39:54;;;;;;;1.20;0.90;;;;;;;;;;5021894;28;20064;-56
2022/04/04 14:42:22;;;;;;;2.42;0.98;;;;;;;;;;5027212;28;20045;-60
2022/04/04 14:44:52;;;;;;;0.77;0.68;;;;;;;;;;5021366;28;20041;-53
2022/04/04 14:47:19;;;;;;;1.50;0.90;;;;;;;;;;5026807;28;20053;-52
2022/04/04 14:49:45;;;;;;;1.45;0.80;;;;;;;;;;5021884;28;20426;-56
2022/04/04 14:52:12;;;;;;;1.30;0.88;;;;;;;;;;5028044;28;20077;-57
2022/04/04 14:54:38;;;;;;;2.28;1.08;;;;;;;;;;5022794;28;20050;-53
2022/04/04 14:57:07;;;;;;;1.27;0.82;;;;;;;;;;5046024;28;20057;-56
2022/04/04 14:59:35;;;;;;;1.65;1.00;;;;;;;;;;5028074;28;20069;-61
2022/04/04 15:02:01;;;;;;;0.82;0.75;;;;;;;;;;5022016;28;20053;-56
2022/04/04 15:04:29;;;;;;;0.93;0.80;;;;;;;;;;5026952;28;20049;-61
2022/04/04 15:06:56;;;;;;;2.70;1.10;;;;;;;;;;5022827;28;20049;-64
2022/04/04 15:09:22;;;;;;;1.08;0.75;;;;;;;;;;5027502;28;20115;-56
2022/04/04 15:11:49;;;;;;;0.70;0.65;;;;;;;;;;5021505;28;20053;-61
2022/04/04 15:14:16;;;;;;;1.40;0.80;;;;;;;;;;5027925;28;20061;-59